createdAt,value
2023-05-16T00:01:18.563Z,11.80
2023-05-16T00:03:51.743Z,11.80
2023-05-16T00:06:22.874Z,11.80
2023-05-16T00:08:53.451Z,11.80
2023-05-16T00:11:23.835Z,11.70
2023-05-16T00:13:54.681Z,11.80
2023-05-16T00:16:26.170Z,11.80
2023-05-16T00:19:01.434Z,11.80
2023-05-16T00:21:32.174Z,11.70
2023-05-16T00:24:02.536Z,11.60
2023-05-16T00:26:32.990Z,11.70
2023-05-16T00:29:03.357Z,11.70
2023-05-16T00:31:34.674Z,11.70
2023-05-16T00:34:07.830Z,11.70
2023-05-16T00:36:38.836Z,11.60
2023-05-16T00:39:09.300Z,11.60
2023-05-16T00:41:39.745Z,11.60
2023-05-16T00:44:10.157Z,11.40
2023-05-16T00:46:40.847Z,11.50
2023-05-16T00:49:14.756Z,11.40
2023-05-16T00:51:45.675Z,11.40
2023-05-16T00:54:16.504Z,11.40
2023-05-16T00:56:47.000Z,11.40
2023-05-16T00:59:17.629Z,11.30
2023-05-16T01:01:50.637Z,11.30
2023-05-16T01:04:24.481Z,11.30
2023-05-16T01:06:55.669Z,11.30
2023-05-16T01:09:26.360Z,11.40
2023-05-16T01:12:05.267Z,11.40
2023-05-16T01:14:46.952Z,11.40
2023-05-16T01:17:26.558Z,11.40
2023-05-16T01:20:15.666Z,11.40
2023-05-16T01:23:03.089Z,11.40
2023-05-16T01:25:49.221Z,11.40
2023-05-16T01:28:23.182Z,11.40
2023-05-16T01:30:54.754Z,11.40
2023-05-16T01:33:26.849Z,11.20
2023-05-16T01:36:03.595Z,11.20
2023-05-16T01:38:40.461Z,11.30
2023-05-16T01:41:16.419Z,11.30
2023-05-16T01:43:54.595Z,11.30
2023-05-16T01:46:30.252Z,11.30
2023-05-16T01:49:08.627Z,11.30
2023-05-16T01:51:43.006Z,11.30
2023-05-16T01:54:16.002Z,11.20
2023-05-16T01:56:52.436Z,11.20
2023-05-16T01:59:27.628Z,11.10
2023-05-16T02:02:00.326Z,11.10
2023-05-16T02:04:30.963Z,11.20
2023-05-16T02:07:02.226Z,11.20
2023-05-16T02:09:32.783Z,11.10
2023-05-16T02:12:04.777Z,11.10
2023-05-16T02:14:37.890Z,11.10
2023-05-16T02:17:08.629Z,11.10
2023-05-16T02:19:39.861Z,11.10
2023-05-16T02:22:10.667Z,11.10
2023-05-16T02:24:41.187Z,11.10
2023-05-16T02:27:11.523Z,11.10
2023-05-16T02:29:44.550Z,11.10
2023-05-16T02:32:14.915Z,11.10
2023-05-16T02:34:45.321Z,11.00
2023-05-16T02:37:15.800Z,10.90
2023-05-16T02:39:46.194Z,10.90
2023-05-16T02:42:16.663Z,11.00
2023-05-16T02:44:50.894Z,11.00
2023-05-16T02:47:21.997Z,11.10
2023-05-16T02:49:52.531Z,11.00
2023-05-16T02:52:22.955Z,10.90
2023-05-16T02:57:26.982Z,11.00
2023-05-16T02:59:59.955Z,11.00
2023-05-16T03:02:30.544Z,11.00
2023-05-16T03:05:01.378Z,11.00
2023-05-16T03:07:31.922Z,11.00
2023-05-16T03:10:02.391Z,10.90
2023-05-16T03:12:32.866Z,10.80
2023-05-16T03:15:06.217Z,10.80
2023-05-16T03:17:36.732Z,10.80
2023-05-16T03:20:09.786Z,10.90
2023-05-16T03:22:40.743Z,10.80
2023-05-16T03:25:11.858Z,10.80
2023-05-16T03:27:44.619Z,10.70
2023-05-16T03:30:18.980Z,10.70
2023-05-16T03:32:49.879Z,10.70
2023-05-16T03:35:20.491Z,10.80
2023-05-16T03:37:51.137Z,10.80
2023-05-16T03:40:22.447Z,10.80
2023-05-16T03:42:52.868Z,10.90
2023-05-16T03:45:26.355Z,10.80
2023-05-16T03:47:57.142Z,10.70
2023-05-16T03:50:27.820Z,10.70
2023-05-16T03:52:58.291Z,10.80
2023-05-16T03:55:29.307Z,10.70
2023-05-16T03:58:00.037Z,10.70
2023-05-16T04:00:34.763Z,10.70
2023-05-16T04:03:05.290Z,10.70
2023-05-16T04:05:35.858Z,10.70
2023-05-16T04:08:06.530Z,10.70
2023-05-16T04:10:36.939Z,10.80
2023-05-16T04:13:07.431Z,10.60
2023-05-16T04:15:40.596Z,10.70
2023-05-16T04:18:11.711Z,10.70
2023-05-16T04:20:42.122Z,10.70
2023-05-16T04:23:14.156Z,10.70
2023-05-16T04:25:44.728Z,10.70
2023-05-16T04:28:15.189Z,10.70
2023-05-16T04:30:48.929Z,10.70
2023-05-16T04:33:19.729Z,10.70
2023-05-16T04:35:50.144Z,10.70
2023-05-16T04:38:20.635Z,10.70
2023-05-16T04:40:51.039Z,10.70
2023-05-16T04:43:21.918Z,10.70
2023-05-16T04:45:54.975Z,10.70
2023-05-16T04:48:25.407Z,10.70
2023-05-16T04:50:55.823Z,10.70
2023-05-16T04:53:26.322Z,10.60
2023-05-16T04:55:57.037Z,10.60
2023-05-16T04:58:27.406Z,10.70
2023-05-16T05:01:01.748Z,10.70
2023-05-16T05:03:32.416Z,10.80
2023-05-16T05:06:02.800Z,10.80
2023-05-16T05:08:33.248Z,10.80
2023-05-16T05:11:03.724Z,10.80
2023-05-16T05:13:34.134Z,10.90
2023-05-16T05:16:07.738Z,10.70
2023-05-16T05:18:38.215Z,10.90
2023-05-16T05:21:08.829Z,10.90
2023-05-16T05:23:39.203Z,10.80
2023-05-16T05:26:09.708Z,10.90
2023-05-16T05:28:42.168Z,10.80
2023-05-16T05:31:18.700Z,10.70
2023-05-16T05:33:49.146Z,10.80
2023-05-16T05:36:20.086Z,10.80
2023-05-16T05:38:50.536Z,10.90
2023-05-16T05:41:22.043Z,10.90
2023-05-16T05:43:52.511Z,11.00
2023-05-16T05:46:25.752Z,11.00
2023-05-16T05:48:56.310Z,10.90
2023-05-16T05:51:26.808Z,11.00
2023-05-16T05:53:58.254Z,10.90
2023-05-16T05:56:28.895Z,11.00
2023-05-16T05:58:59.313Z,11.10
2023-05-16T06:01:32.462Z,11.10
2023-05-16T06:04:02.861Z,11.00
2023-05-16T06:06:33.265Z,11.20
2023-05-16T06:09:03.745Z,11.20
2023-05-16T06:11:34.073Z,11.20
2023-05-16T06:14:04.546Z,11.20
2023-05-16T06:16:37.539Z,11.30
2023-05-16T06:19:08.077Z,11.30
2023-05-16T06:21:38.628Z,11.30
2023-05-16T06:24:09.118Z,11.30
2023-05-16T06:26:39.887Z,11.30
2023-05-16T06:29:10.331Z,11.30
2023-05-16T06:31:43.611Z,11.40
2023-05-16T06:34:14.029Z,11.50
2023-05-16T06:36:45.071Z,11.60
2023-05-16T06:39:15.511Z,11.50
2023-05-16T06:41:45.853Z,11.60
2023-05-16T06:44:19.677Z,11.60
2023-05-16T06:46:52.822Z,11.60
2023-05-16T06:49:23.413Z,11.60
2023-05-16T06:51:53.872Z,11.70
2023-05-16T06:54:24.403Z,11.70
2023-05-16T06:56:54.842Z,11.80
2023-05-16T06:59:26.878Z,11.90
2023-05-16T07:02:01.302Z,12.00
2023-05-16T07:04:33.006Z,12.00
2023-05-16T07:07:03.496Z,12.00
2023-05-16T07:09:34.321Z,12.10
2023-05-16T07:12:05.055Z,12.10
2023-05-16T07:14:35.691Z,12.20
2023-05-16T07:17:08.707Z,12.10
2023-05-16T07:19:39.345Z,12.00
2023-05-16T07:22:09.794Z,12.00
2023-05-16T07:24:43.203Z,12.10
2023-05-16T07:27:13.698Z,12.10
2023-05-16T07:29:44.790Z,12.10
2023-05-16T07:32:17.934Z,12.20
2023-05-16T07:34:48.561Z,12.10
2023-05-16T07:37:20.779Z,12.20
2023-05-16T07:39:51.311Z,12.30
2023-05-16T07:42:21.802Z,12.20
2023-05-16T07:44:52.304Z,12.30
2023-05-16T07:47:25.479Z,12.50
2023-05-16T07:49:56.140Z,12.50
2023-05-16T07:52:26.576Z,12.40
2023-05-16T07:54:57.256Z,12.30
2023-05-16T07:57:28.059Z,12.30
2023-05-16T07:59:58.735Z,12.40
2023-05-16T08:02:32.404Z,12.40
2023-05-16T08:05:03.303Z,12.50
2023-05-16T08:07:33.753Z,12.60
2023-05-16T08:10:04.295Z,12.70
2023-05-16T08:12:34.792Z,12.90
2023-05-16T08:15:07.609Z,13.00
2023-05-16T08:17:40.735Z,13.10
2023-05-16T08:20:12.337Z,13.10
2023-05-16T08:22:42.875Z,13.30
2023-05-16T08:25:13.650Z,13.30
2023-05-16T08:27:45.706Z,13.40
2023-05-16T08:30:17.324Z,13.40
2023-05-16T08:32:50.501Z,13.40
2023-05-16T08:35:21.366Z,13.40
2023-05-16T08:37:51.990Z,13.20
2023-05-16T08:40:23.498Z,13.10
2023-05-16T08:42:54.096Z,13.00
2023-05-16T08:45:25.181Z,13.00
2023-05-16T08:47:59.421Z,13.10
2023-05-16T08:50:32.782Z,13.20
2023-05-16T08:53:09.446Z,13.10
2023-05-16T08:55:41.044Z,13.10
2023-05-16T08:58:12.453Z,13.30
2023-05-16T09:00:43.576Z,13.50
2023-05-16T09:03:17.485Z,13.80
2023-05-16T09:05:48.281Z,14.00
2023-05-16T09:08:18.919Z,14.00
2023-05-16T09:10:49.512Z,14.20
2023-05-16T09:13:20.054Z,14.10
2023-05-16T09:16:10.461Z,14.30
2023-05-16T09:18:44.408Z,14.20
2023-05-16T09:21:16.144Z,14.30
2023-05-16T09:23:47.586Z,14.20
2023-05-16T09:26:18.630Z,14.40
2023-05-16T09:28:49.042Z,14.50
2023-05-16T09:31:27.167Z,14.40
2023-05-16T09:34:01.092Z,14.30
2023-05-16T09:36:31.678Z,14.20
2023-05-16T09:39:02.315Z,14.10
2023-05-16T09:41:36.717Z,14.00
2023-05-16T09:44:08.716Z,14.00
2023-05-16T09:46:40.611Z,14.20
2023-05-16T09:49:15.918Z,14.30
2023-05-16T09:51:46.688Z,14.40
2023-05-16T09:54:17.128Z,14.40
2023-05-16T09:56:54.458Z,14.40
2023-05-16T09:59:25.547Z,14.30
2023-05-16T10:01:57.333Z,14.70
2023-05-16T10:04:30.517Z,14.70
2023-05-16T10:07:04.935Z,15.00
2023-05-16T10:09:36.694Z,15.00
2023-05-16T10:12:10.261Z,15.00
2023-05-16T10:14:42.226Z,15.30
2023-05-16T10:17:17.371Z,15.50
2023-05-16T10:19:51.606Z,15.60
2023-05-16T10:22:23.328Z,15.20
2023-05-16T10:25:01.657Z,15.10
2023-05-16T10:27:33.728Z,14.90
2023-05-16T10:30:06.140Z,15.00
2023-05-16T10:32:37.960Z,15.10
2023-05-16T10:35:13.843Z,15.40
2023-05-16T10:37:44.992Z,15.50
2023-05-16T10:40:17.202Z,15.60
2023-05-16T10:43:00.513Z,16.00
2023-05-16T10:45:36.240Z,16.00
2023-05-16T10:48:10.082Z,15.70
2023-05-16T10:50:44.752Z,15.60
2023-05-16T10:53:20.245Z,15.50
2023-05-16T10:56:09.234Z,15.50
2023-05-16T10:58:47.478Z,15.90
2023-05-16T11:01:23.820Z,15.90
2023-05-16T11:04:12.903Z,16.10
2023-05-16T11:06:56.908Z,16.10
2023-05-16T11:09:29.826Z,16.30
2023-05-16T11:12:06.674Z,16.50
2023-05-16T11:14:43.854Z,16.50
2023-05-16T11:17:16.158Z,16.60
2023-05-16T11:19:48.067Z,16.70
2023-05-16T11:22:32.753Z,16.80
2023-05-16T11:25:07.458Z,16.70
2023-05-16T11:27:39.943Z,16.40
2023-05-16T11:30:16.360Z,16.20
2023-05-16T11:32:48.772Z,16.00
2023-05-16T11:35:21.683Z,16.00
2023-05-16T11:37:54.911Z,16.20
2023-05-16T11:40:25.433Z,16.50
2023-05-16T11:42:56.184Z,16.50
2023-05-16T11:45:28.629Z,16.80
2023-05-16T11:48:06.263Z,16.40
2023-05-16T11:50:38.311Z,16.30
2023-05-16T11:53:12.076Z,16.30
2023-05-16T11:55:47.713Z,16.40
2023-05-16T11:58:20.236Z,16.50
2023-05-16T12:00:54.302Z,16.40
2023-05-16T12:03:25.435Z,16.40
2023-05-16T12:05:58.179Z,16.60
2023-05-16T12:08:31.737Z,16.70
2023-05-16T12:11:02.376Z,16.50
2023-05-16T12:13:32.886Z,16.30
2023-05-16T12:16:03.697Z,16.50
2023-05-16T12:18:34.368Z,16.50
2023-05-16T12:21:05.335Z,16.50
2023-05-16T12:23:39.243Z,16.60
2023-05-16T12:26:09.932Z,16.50
2023-05-16T12:28:40.631Z,16.40
2023-05-16T12:31:31.669Z,16.40
2023-05-16T12:34:03.178Z,16.80
2023-05-16T12:36:37.223Z,17.00
2023-05-16T12:39:10.326Z,17.10
2023-05-16T12:41:44.704Z,16.90
2023-05-16T12:44:18.133Z,17.20
2023-05-16T12:46:50.352Z,17.20
2023-05-16T12:49:24.527Z,17.30
2023-05-16T12:51:56.241Z,17.30
2023-05-16T12:54:29.277Z,17.00
2023-05-16T12:57:00.017Z,17.00
2023-05-16T12:59:31.566Z,17.00
2023-05-16T13:02:02.058Z,16.90
2023-05-16T13:04:32.668Z,16.90
2023-05-16T13:07:04.997Z,17.00
2023-05-16T13:09:38.081Z,16.80
2023-05-16T13:12:09.197Z,16.80
2023-05-16T13:14:40.435Z,16.70
2023-05-16T13:17:12.339Z,16.90
2023-05-16T13:19:42.744Z,16.70
2023-05-16T13:22:15.841Z,16.70
2023-05-16T13:24:49.829Z,16.70
2023-05-16T13:27:20.863Z,16.90
2023-05-16T13:29:51.293Z,16.70
2023-05-16T13:32:21.858Z,16.70
2023-05-16T13:34:52.271Z,16.70
2023-05-16T13:37:24.657Z,16.80
2023-05-16T13:39:57.861Z,16.70
2023-05-16T13:42:28.445Z,16.70
2023-05-16T13:44:58.918Z,16.80
2023-05-16T13:47:29.832Z,16.80
2023-05-16T13:50:00.453Z,17.10
2023-05-16T13:52:31.338Z,16.90
2023-05-16T13:55:04.388Z,16.60
2023-05-16T13:57:34.978Z,16.60
2023-05-16T14:00:31.168Z,16.50
2023-05-16T14:02:57.310Z,16.40
2023-05-16T14:05:28.080Z,16.90
2023-05-16T14:07:59.063Z,17.40
2023-05-16T14:10:32.292Z,17.40
2023-05-16T14:13:02.825Z,17.20
2023-05-16T14:15:33.336Z,17.20
2023-05-16T14:18:05.169Z,17.40
2023-05-16T14:20:36.258Z,17.20
2023-05-16T14:23:07.314Z,17.10
2023-05-16T14:25:40.602Z,16.80
2023-05-16T14:28:12.286Z,17.00
2023-05-16T14:30:44.181Z,16.90
2023-05-16T14:33:15.649Z,16.90
2023-05-16T14:35:46.317Z,16.90
2023-05-16T14:38:16.821Z,16.90
2023-05-16T14:40:50.335Z,16.80
2023-05-16T14:43:20.862Z,16.80
2023-05-16T14:45:51.402Z,17.10
2023-05-16T14:48:22.205Z,17.20
2023-05-16T14:50:53.324Z,17.50
2023-05-16T14:53:24.662Z,17.50
2023-05-16T14:55:57.753Z,17.40
2023-05-16T14:58:28.586Z,17.30
2023-05-16T15:00:59.176Z,17.30
2023-05-16T15:03:35.445Z,17.10
2023-05-16T15:06:13.930Z,17.10
2023-05-16T15:08:44.636Z,17.50
2023-05-16T15:11:18.085Z,17.80
2023-05-16T15:13:48.842Z,17.60
2023-05-16T15:16:19.765Z,17.30
2023-05-16T15:18:50.474Z,17.30
2023-05-16T15:21:21.049Z,17.10
2023-05-16T15:23:51.723Z,17.20
2023-05-16T15:26:25.400Z,17.10
2023-05-16T15:28:56.024Z,17.20
2023-05-16T15:31:26.710Z,17.10
2023-05-16T15:33:59.136Z,17.20
2023-05-16T15:36:29.892Z,17.10
2023-05-16T15:39:00.750Z,17.00
2023-05-16T15:41:56.889Z,16.90
2023-05-16T15:44:24.616Z,16.90
2023-05-16T15:46:55.134Z,16.80
2023-05-16T15:49:26.284Z,16.80
2023-05-16T15:51:57.915Z,16.70
2023-05-16T15:54:28.857Z,16.80
2023-05-16T15:57:02.137Z,16.80
2023-05-16T15:59:32.980Z,16.80
2023-05-16T16:02:05.589Z,16.70
2023-05-16T16:04:36.264Z,16.80
2023-05-16T16:07:07.214Z,16.90
2023-05-16T16:09:38.040Z,17.10
2023-05-16T16:12:12.057Z,17.30
2023-05-16T16:14:42.606Z,17.50
2023-05-16T16:17:13.137Z,17.70
2023-05-16T16:19:43.724Z,18.10
2023-05-16T16:22:14.092Z,18.00
2023-05-16T16:24:44.600Z,18.00
2023-05-16T16:27:20.509Z,18.10
2023-05-16T16:29:50.914Z,18.20
2023-05-16T16:32:21.306Z,18.30
2023-05-16T16:34:51.744Z,18.40
2023-05-16T16:37:23.003Z,18.50
2023-05-16T16:39:53.565Z,18.60
2023-05-16T16:42:27.269Z,18.40
2023-05-16T16:44:57.854Z,18.40
2023-05-16T16:47:28.874Z,18.60
2023-05-16T16:49:59.455Z,18.70
2023-05-16T16:52:29.895Z,18.80
2023-05-16T16:55:00.453Z,18.80
2023-05-16T16:57:33.531Z,18.80
2023-05-16T17:00:04.028Z,18.50
2023-05-16T17:02:34.477Z,18.50
2023-05-16T17:05:05.115Z,18.70
2023-05-16T17:07:35.675Z,18.70
2023-05-16T17:10:08.104Z,18.60
2023-05-16T17:12:49.147Z,18.60
2023-05-16T17:15:20.128Z,18.40
2023-05-16T17:17:51.811Z,18.60
2023-05-16T17:20:22.416Z,18.80
2023-05-16T17:22:52.879Z,18.90
2023-05-16T17:25:23.881Z,18.90
2023-05-16T17:27:56.993Z,18.70
2023-05-16T17:30:27.628Z,18.60
2023-05-16T17:32:58.121Z,18.80
2023-05-16T17:35:28.865Z,18.90
2023-05-16T17:37:59.464Z,18.80
2023-05-16T17:40:29.981Z,18.70
2023-05-16T17:43:03.182Z,18.60
2023-05-16T17:45:33.927Z,18.90
2023-05-16T17:48:04.463Z,19.00
2023-05-16T17:50:36.416Z,18.80
2023-05-16T17:53:08.010Z,18.70
2023-05-16T17:55:38.718Z,18.80
2023-05-16T17:58:11.769Z,18.90
2023-05-16T18:00:42.563Z,18.70
2023-05-16T18:03:13.166Z,19.10
2023-05-16T18:05:43.835Z,19.20
2023-05-16T18:08:14.268Z,19.30
2023-05-16T18:10:52.002Z,19.20
2023-05-16T18:13:25.777Z,19.30
2023-05-16T18:15:56.285Z,19.00
2023-05-16T18:18:27.379Z,19.00
2023-05-16T18:20:58.296Z,18.80
2023-05-16T18:23:28.945Z,18.90
2023-05-16T18:25:59.577Z,19.00
2023-05-16T18:28:32.810Z,18.90
2023-05-16T18:31:03.476Z,18.70
2023-05-16T18:33:34.251Z,18.50
2023-05-16T18:36:04.785Z,18.30
2023-05-16T18:38:35.262Z,18.00
2023-05-16T18:41:06.596Z,18.00
2023-05-16T18:43:39.889Z,17.90
2023-05-16T18:46:10.454Z,18.00
2023-05-16T18:48:40.909Z,17.90
2023-05-16T18:51:11.488Z,18.00
2023-05-16T18:53:41.957Z,17.80
2023-05-16T18:56:12.506Z,17.60
2023-05-16T18:58:45.558Z,17.60
2023-05-16T19:01:16.206Z,17.70
2023-05-16T19:03:46.709Z,17.60
2023-05-16T19:06:17.242Z,17.50
2023-05-16T19:08:48.480Z,17.60
2023-05-16T19:11:19.768Z,17.50
2023-05-16T19:13:52.977Z,17.50
2023-05-16T19:16:23.633Z,17.40
2023-05-16T19:18:54.187Z,17.20
2023-05-16T19:21:24.982Z,17.20
2023-05-16T19:23:55.499Z,17.10
2023-05-16T19:26:26.097Z,16.90
2023-05-16T19:29:01.994Z,17.00
2023-05-16T19:31:32.464Z,17.00
2023-05-16T19:34:02.891Z,16.90
2023-05-16T19:36:34.060Z,16.80
2023-05-16T19:39:04.467Z,16.80
2023-05-16T19:41:34.848Z,16.80
2023-05-16T19:44:08.076Z,16.50
2023-05-16T19:46:39.488Z,16.70
2023-05-16T19:49:11.102Z,16.60
2023-05-16T19:51:42.379Z,16.60
2023-05-16T19:54:12.987Z,16.60
2023-05-16T19:56:43.448Z,16.50
2023-05-16T19:59:16.484Z,16.40
2023-05-16T20:01:47.287Z,16.30
2023-05-16T20:04:17.907Z,16.20
2023-05-16T20:06:48.495Z,16.20
2023-05-16T20:09:18.915Z,16.10
2023-05-16T20:11:49.948Z,16.00
2023-05-16T20:14:23.080Z,16.10
2023-05-16T20:16:53.701Z,15.90
2023-05-16T20:19:24.273Z,15.90
2023-05-16T20:21:54.901Z,15.80
2023-05-16T20:24:25.461Z,15.80
2023-05-16T20:26:55.948Z,15.70
2023-05-16T20:29:30.615Z,15.60
2023-05-16T20:32:03.467Z,15.70
2023-05-16T20:34:34.351Z,15.70
2023-05-16T20:37:04.786Z,15.70
2023-05-16T20:39:35.234Z,15.60
2023-05-16T20:42:05.858Z,15.60
2023-05-16T20:44:38.924Z,15.60
2023-05-16T20:47:10.233Z,15.60
2023-05-16T20:49:40.926Z,15.60
2023-05-16T20:52:11.806Z,15.60
2023-05-16T20:54:42.216Z,15.50
2023-05-16T20:57:16.447Z,15.40
2023-05-16T20:59:49.436Z,15.30
2023-05-16T21:02:19.936Z,15.30
2023-05-16T21:04:50.321Z,15.20
2023-05-16T21:07:21.755Z,15.40
2023-05-16T21:09:52.136Z,15.30
2023-05-16T21:12:22.546Z,15.20
2023-05-16T21:14:55.540Z,15.20
2023-05-16T21:17:26.088Z,15.30
2023-05-16T21:19:56.569Z,15.30
2023-05-16T21:22:27.184Z,15.10
2023-05-16T21:24:57.629Z,15.10
2023-05-16T21:27:28.092Z,15.10
2023-05-16T21:30:01.098Z,15.00
2023-05-16T21:32:33.184Z,15.00
2023-05-16T21:35:04.990Z,14.90
2023-05-16T21:37:35.651Z,14.90
2023-05-16T21:40:06.695Z,14.70
2023-05-16T21:42:37.180Z,14.70
2023-05-16T21:45:16.007Z,14.80
2023-05-16T21:47:46.778Z,14.80
2023-05-16T21:50:18.455Z,14.80
2023-05-16T21:52:49.687Z,14.80
2023-05-16T21:55:20.192Z,14.70
2023-05-16T21:57:50.913Z,14.60
2023-05-16T22:00:24.311Z,14.60
2023-05-16T22:02:54.767Z,14.70
2023-05-16T22:05:25.348Z,14.60
2023-05-16T22:07:56.236Z,14.70
2023-05-16T22:10:26.781Z,14.70
2023-05-16T22:12:57.224Z,14.70
2023-05-16T22:15:30.446Z,14.60
2023-05-16T22:18:01.284Z,14.60
2023-05-16T22:20:31.968Z,14.60
2023-05-16T22:23:02.604Z,14.70
2023-05-16T22:25:33.039Z,14.50
2023-05-16T22:28:03.588Z,14.50
2023-05-16T22:30:36.583Z,14.50
2023-05-16T22:33:07.285Z,14.50
2023-05-16T22:35:38.180Z,14.50
2023-05-16T22:38:08.648Z,14.40
2023-05-16T22:40:39.133Z,14.40
2023-05-16T22:43:09.574Z,14.40
2023-05-16T22:45:44.922Z,14.30
2023-05-16T22:48:15.483Z,14.20
2023-05-16T22:50:47.977Z,14.20
2023-05-16T22:53:18.412Z,14.10
2023-05-16T22:55:48.816Z,14.10
2023-05-16T22:58:19.349Z,14.10
2023-05-16T23:00:52.442Z,14.10
2023-05-16T23:03:23.091Z,14.10
2023-05-16T23:05:53.657Z,14.10
2023-05-16T23:08:24.038Z,14.00
2023-05-16T23:10:54.498Z,13.80
2023-05-16T23:13:24.899Z,14.10
2023-05-16T23:15:58.125Z,14.00
2023-05-16T23:18:28.844Z,13.90
2023-05-16T23:20:59.325Z,13.80
2023-05-16T23:23:29.745Z,13.90
2023-05-16T23:26:00.176Z,13.90
2023-05-16T23:28:30.590Z,13.90
2023-05-16T23:31:03.894Z,13.90
2023-05-16T23:33:34.384Z,13.90
2023-05-16T23:36:04.871Z,13.80
2023-05-16T23:38:35.314Z,13.80
2023-05-16T23:41:05.865Z,13.80
2023-05-16T23:43:36.339Z,13.70
2023-05-16T23:46:09.575Z,13.70
2023-05-16T23:48:40.270Z,13.70
2023-05-16T23:51:10.829Z,13.70
2023-05-16T23:53:41.263Z,13.60
2023-05-16T23:56:11.920Z,13.60
2023-05-16T23:58:42.297Z,13.60
